sensor_id;sensor_type;location;lat;lon;timestamp;P1;durP1;ratioP1;P2;durP2;ratioP2
66175;SDS011;52977;44.816;20.538;2023-07-31T00:00:26;11.32;;;6.40;;
66175;SDS011;52977;44.816;20.538;2023-07-31T00:02:52;9.82;;;5.53;;
66175;SDS011;52977;44.816;20.538;2023-07-31T00:05:18;11.20;;;6.93;;
66175;SDS011;52977;44.816;20.538;2023-07-31T00:07:43;11.20;;;6.20;;
66175;SDS011;52977;44.816;20.538;2023-07-31T00:10:09;14.15;;;7.15;;
66175;SDS011;52977;44.816;20.538;2023-07-31T00:12:35;12.27;;;7.40;;
66175;SDS011;52977;44.816;20.538;2023-07-31T00:15:01;14.20;;;7.85;;
66175;SDS011;52977;44.816;20.538;2023-07-31T00:17:28;15.60;;;8.23;;
66175;SDS011;52977;44.816;20.538;2023-07-31T00:19:54;12.13;;;8.02;;
66175;SDS011;52977;44.816;20.538;2023-07-31T00:22:20;11.45;;;6.85;;
66175;SDS011;52977;44.816;20.538;2023-07-31T00:24:46;10.15;;;6.07;;
66175;SDS011;52977;44.816;20.538;2023-07-31T00:27:12;12.95;;;6.22;;
66175;SDS011;52977;44.816;20.538;2023-07-31T00:29:39;11.40;;;5.93;;
66175;SDS011;52977;44.816;20.538;2023-07-31T00:32:05;10.45;;;5.13;;
66175;SDS011;52977;44.816;20.538;2023-07-31T00:34:32;8.30;;;5.03;;
66175;SDS011;52977;44.816;20.538;2023-07-31T00:36:58;9.52;;;5.25;;
66175;SDS011;52977;44.816;20.538;2023-07-31T00:39:24;11.20;;;4.95;;
66175;SDS011;52977;44.816;20.538;2023-07-31T00:41:50;7.50;;;4.43;;
66175;SDS011;52977;44.816;20.538;2023-07-31T00:44:16;8.25;;;4.22;;
66175;SDS011;52977;44.816;20.538;2023-07-31T00:46:42;8.25;;;4.72;;
66175;SDS011;52977;44.816;20.538;2023-07-31T00:49:09;9.10;;;4.03;;
66175;SDS011;52977;44.816;20.538;2023-07-31T00:51:36;7.25;;;5.03;;
66175;SDS011;52977;44.816;20.538;2023-07-31T00:54:01;7.63;;;4.40;;
66175;SDS011;52977;44.816;20.538;2023-07-31T00:56:28;8.65;;;4.20;;
66175;SDS011;52977;44.816;20.538;2023-07-31T00:58:54;9.23;;;4.55;;
66175;SDS011;52977;44.816;20.538;2023-07-31T01:01:20;10.65;;;4.47;;
66175;SDS011;52977;44.816;20.538;2023-07-31T01:03:47;6.65;;;4.45;;
66175;SDS011;52977;44.816;20.538;2023-07-31T01:09:12;8.00;;;4.57;;
66175;SDS011;52977;44.816;20.538;2023-07-31T01:11:46;6.80;;;4.10;;
66175;SDS011;52977;44.816;20.538;2023-07-31T01:14:17;9.90;;;4.53;;
66175;SDS011;52977;44.816;20.538;2023-07-31T01:16:43;6.93;;;3.47;;
66175;SDS011;52977;44.816;20.538;2023-07-31T01:19:09;8.35;;;4.03;;
66175;SDS011;52977;44.816;20.538;2023-07-31T01:24:55;6.70;;;3.90;;
66175;SDS011;52977;44.816;20.538;2023-07-31T01:27:59;7.65;;;4.18;;
66175;SDS011;52977;44.816;20.538;2023-07-31T01:30:32;6.75;;;3.75;;
66175;SDS011;52977;44.816;20.538;2023-07-31T01:33:01;5.90;;;3.63;;
66175;SDS011;52977;44.816;20.538;2023-07-31T01:35:33;7.22;;;3.80;;
66175;SDS011;52977;44.816;20.538;2023-07-31T01:38:00;6.35;;;3.83;;
66175;SDS011;52977;44.816;20.538;2023-07-31T01:40:26;8.52;;;4.00;;
66175;SDS011;52977;44.816;20.538;2023-07-31T01:42:52;8.90;;;3.75;;
66175;SDS011;52977;44.816;20.538;2023-07-31T01:45:18;6.43;;;3.58;;
66175;SDS011;52977;44.816;20.538;2023-07-31T01:47:45;12.02;;;3.50;;
66175;SDS011;52977;44.816;20.538;2023-07-31T01:50:11;5.20;;;3.25;;
66175;SDS011;52977;44.816;20.538;2023-07-31T01:52:37;8.85;;;4.13;;
66175;SDS011;52977;44.816;20.538;2023-07-31T01:55:03;6.88;;;3.75;;
66175;SDS011;52977;44.816;20.538;2023-07-31T01:57:30;7.38;;;3.60;;
66175;SDS011;52977;44.816;20.538;2023-07-31T01:59:56;6.85;;;3.63;;
66175;SDS011;52977;44.816;20.538;2023-07-31T02:02:23;7.63;;;3.83;;
66175;SDS011;52977;44.816;20.538;2023-07-31T02:04:49;7.68;;;3.65;;
66175;SDS011;52977;44.816;20.538;2023-07-31T02:07:15;6.43;;;3.60;;
66175;SDS011;52977;44.816;20.538;2023-07-31T02:09:41;7.30;;;3.63;;
66175;SDS011;52977;44.816;20.538;2023-07-31T02:12:07;7.72;;;4.20;;
66175;SDS011;52977;44.816;20.538;2023-07-31T02:14:34;8.85;;;3.85;;
66175;SDS011;52977;44.816;20.538;2023-07-31T02:17:00;6.65;;;3.35;;
66175;SDS011;52977;44.816;20.538;2023-07-31T02:19:27;7.57;;;3.92;;
66175;SDS011;52977;44.816;20.538;2023-07-31T02:21:53;9.13;;;3.85;;
66175;SDS011;52977;44.816;20.538;2023-07-31T02:24:21;6.05;;;3.53;;
66175;SDS011;52977;44.816;20.538;2023-07-31T02:26:47;6.50;;;3.65;;
66175;SDS011;52977;44.816;20.538;2023-07-31T02:29:13;5.82;;;3.20;;
66175;SDS011;52977;44.816;20.538;2023-07-31T02:31:39;7.03;;;3.25;;
66175;SDS011;52977;44.816;20.538;2023-07-31T02:34:04;5.57;;;3.22;;
66175;SDS011;52977;44.816;20.538;2023-07-31T02:36:30;5.32;;;3.15;;
66175;SDS011;52977;44.816;20.538;2023-07-31T02:38:56;6.40;;;3.20;;
66175;SDS011;52977;44.816;20.538;2023-07-31T02:41:21;5.70;;;3.25;;
66175;SDS011;52977;44.816;20.538;2023-07-31T02:43:47;6.65;;;3.25;;
66175;SDS011;52977;44.816;20.538;2023-07-31T02:46:13;6.75;;;3.33;;
66175;SDS011;52977;44.816;20.538;2023-07-31T02:48:39;6.82;;;3.28;;
66175;SDS011;52977;44.816;20.538;2023-07-31T02:51:06;6.35;;;3.20;;
66175;SDS011;52977;44.816;20.538;2023-07-31T02:53:32;6.70;;;3.65;;
66175;SDS011;52977;44.816;20.538;2023-07-31T02:55:58;6.38;;;3.78;;
66175;SDS011;52977;44.816;20.538;2023-07-31T02:58:24;6.50;;;3.80;;
66175;SDS011;52977;44.816;20.538;2023-07-31T03:00:50;8.20;;;3.78;;
66175;SDS011;52977;44.816;20.538;2023-07-31T03:03:16;8.82;;;4.40;;
66175;SDS011;52977;44.816;20.538;2023-07-31T03:05:42;9.02;;;4.53;;
66175;SDS011;52977;44.816;20.538;2023-07-31T03:08:08;9.70;;;4.13;;
66175;SDS011;52977;44.816;20.538;2023-07-31T03:10:35;7.68;;;4.70;;
66175;SDS011;52977;44.816;20.538;2023-07-31T03:13:01;8.40;;;4.57;;
66175;SDS011;52977;44.816;20.538;2023-07-31T03:15:27;6.85;;;3.97;;
66175;SDS011;52977;44.816;20.538;2023-07-31T03:17:53;8.43;;;5.15;;
66175;SDS011;52977;44.816;20.538;2023-07-31T03:20:19;6.50;;;4.13;;
66175;SDS011;52977;44.816;20.538;2023-07-31T03:22:45;10.45;;;4.63;;
66175;SDS011;52977;44.816;20.538;2023-07-31T03:25:11;9.30;;;3.97;;
66175;SDS011;52977;44.816;20.538;2023-07-31T03:27:38;8.75;;;4.25;;
66175;SDS011;52977;44.816;20.538;2023-07-31T03:30:05;12.13;;;4.88;;
66175;SDS011;52977;44.816;20.538;2023-07-31T03:32:31;8.70;;;4.63;;
66175;SDS011;52977;44.816;20.538;2023-07-31T03:34:58;7.30;;;4.40;;
66175;SDS011;52977;44.816;20.538;2023-07-31T03:37:24;10.75;;;5.53;;
66175;SDS011;52977;44.816;20.538;2023-07-31T03:39:50;8.77;;;5.47;;
66175;SDS011;52977;44.816;20.538;2023-07-31T03:42:16;7.43;;;5.00;;
66175;SDS011;52977;44.816;20.538;2023-07-31T03:44:42;12.93;;;5.50;;
66175;SDS011;52977;44.816;20.538;2023-07-31T03:47:09;8.75;;;5.30;;
66175;SDS011;52977;44.816;20.538;2023-07-31T03:49:36;7.80;;;4.82;;
66175;SDS011;52977;44.816;20.538;2023-07-31T03:52:03;10.90;;;5.70;;
66175;SDS011;52977;44.816;20.538;2023-07-31T03:54:29;10.32;;;5.38;;
66175;SDS011;52977;44.816;20.538;2023-07-31T03:56:55;10.38;;;5.75;;
66175;SDS011;52977;44.816;20.538;2023-07-31T03:59:21;13.90;;;5.75;;
66175;SDS011;52977;44.816;20.538;2023-07-31T04:01:48;10.45;;;5.55;;
66175;SDS011;52977;44.816;20.538;2023-07-31T04:04:14;11.02;;;5.90;;
66175;SDS011;52977;44.816;20.538;2023-07-31T04:06:40;10.55;;;5.93;;
66175;SDS011;52977;44.816;20.538;2023-07-31T04:09:06;10.82;;;6.20;;
66175;SDS011;52977;44.816;20.538;2023-07-31T04:11:32;12.60;;;6.55;;
66175;SDS011;52977;44.816;20.538;2023-07-31T04:13:58;8.68;;;5.68;;
66175;SDS011;52977;44.816;20.538;2023-07-31T04:16:24;10.05;;;6.00;;
66175;SDS011;52977;44.816;20.538;2023-07-31T04:18:50;10.05;;;5.70;;
66175;SDS011;52977;44.816;20.538;2023-07-31T04:21:17;9.35;;;5.25;;
66175;SDS011;52977;44.816;20.538;2023-07-31T04:23:43;9.63;;;5.40;;
66175;SDS011;52977;44.816;20.538;2023-07-31T04:26:09;8.80;;;5.50;;
66175;SDS011;52977;44.816;20.538;2023-07-31T04:28:35;9.40;;;5.47;;
66175;SDS011;52977;44.816;20.538;2023-07-31T04:31:01;8.90;;;5.28;;
66175;SDS011;52977;44.816;20.538;2023-07-31T04:33:27;8.07;;;5.13;;
66175;SDS011;52977;44.816;20.538;2023-07-31T04:35:54;8.85;;;4.85;;
66175;SDS011;52977;44.816;20.538;2023-07-31T04:38:20;10.75;;;5.30;;
66175;SDS011;52977;44.816;20.538;2023-07-31T04:40:46;8.85;;;4.63;;
66175;SDS011;52977;44.816;20.538;2023-07-31T04:43:13;9.82;;;4.65;;
66175;SDS011;52977;44.816;20.538;2023-07-31T04:45:39;8.82;;;4.85;;
66175;SDS011;52977;44.816;20.538;2023-07-31T04:48:07;9.27;;;4.82;;
66175;SDS011;52977;44.816;20.538;2023-07-31T04:50:33;9.10;;;4.95;;
66175;SDS011;52977;44.816;20.538;2023-07-31T04:52:59;12.80;;;7.22;;
66175;SDS011;52977;44.816;20.538;2023-07-31T04:55:25;8.90;;;5.25;;
66175;SDS011;52977;44.816;20.538;2023-07-31T04:57:50;8.15;;;4.68;;
66175;SDS011;52977;44.816;20.538;2023-07-31T05:00:16;6.75;;;4.28;;
66175;SDS011;52977;44.816;20.538;2023-07-31T05:02:42;10.98;;;5.80;;
66175;SDS011;52977;44.816;20.538;2023-07-31T05:05:07;7.45;;;4.68;;
66175;SDS011;52977;44.816;20.538;2023-07-31T05:07:33;7.35;;;4.50;;
66175;SDS011;52977;44.816;20.538;2023-07-31T05:09:59;11.55;;;4.93;;
66175;SDS011;52977;44.816;20.538;2023-07-31T05:12:25;8.05;;;4.70;;
66175;SDS011;52977;44.816;20.538;2023-07-31T05:14:51;8.15;;;4.13;;
66175;SDS011;52977;44.816;20.538;2023-07-31T05:17:17;7.50;;;4.30;;
66175;SDS011;52977;44.816;20.538;2023-07-31T05:19:43;8.38;;;4.13;;
66175;SDS011;52977;44.816;20.538;2023-07-31T05:22:09;5.57;;;3.60;;
66175;SDS011;52977;44.816;20.538;2023-07-31T05:24:34;6.47;;;3.83;;
66175;SDS011;52977;44.816;20.538;2023-07-31T05:27:00;10.00;;;4.60;;
66175;SDS011;52977;44.816;20.538;2023-07-31T05:29:26;8.80;;;4.72;;
66175;SDS011;52977;44.816;20.538;2023-07-31T05:31:52;7.97;;;4.00;;
66175;SDS011;52977;44.816;20.538;2023-07-31T05:34:18;8.02;;;4.40;;
66175;SDS011;52977;44.816;20.538;2023-07-31T05:36:44;8.73;;;5.20;;
66175;SDS011;52977;44.816;20.538;2023-07-31T05:39:10;7.15;;;4.53;;
66175;SDS011;52977;44.816;20.538;2023-07-31T05:41:36;10.77;;;4.90;;
66175;SDS011;52977;44.816;20.538;2023-07-31T05:44:03;6.47;;;3.90;;
66175;SDS011;52977;44.816;20.538;2023-07-31T05:46:29;7.82;;;4.70;;
66175;SDS011;52977;44.816;20.538;2023-07-31T05:48:56;10.82;;;5.95;;
66175;SDS011;52977;44.816;20.538;2023-07-31T05:51:23;8.25;;;4.88;;
66175;SDS011;52977;44.816;20.538;2023-07-31T05:53:49;10.90;;;4.82;;
66175;SDS011;52977;44.816;20.538;2023-07-31T05:56:15;8.00;;;4.30;;
66175;SDS011;52977;44.816;20.538;2023-07-31T05:58:41;10.68;;;4.60;;
66175;SDS011;52977;44.816;20.538;2023-07-31T06:01:07;9.13;;;4.50;;
66175;SDS011;52977;44.816;20.538;2023-07-31T06:03:33;7.72;;;4.35;;
66175;SDS011;52977;44.816;20.538;2023-07-31T06:05:59;7.07;;;4.13;;
66175;SDS011;52977;44.816;20.538;2023-07-31T06:08:26;6.57;;;4.38;;
66175;SDS011;52977;44.816;20.538;2023-07-31T06:10:52;6.70;;;4.68;;
66175;SDS011;52977;44.816;20.538;2023-07-31T06:13:18;8.07;;;5.20;;
66175;SDS011;52977;44.816;20.538;2023-07-31T06:15:44;8.27;;;4.68;;
66175;SDS011;52977;44.816;20.538;2023-07-31T06:18:10;7.63;;;4.82;;
66175;SDS011;52977;44.816;20.538;2023-07-31T06:20:37;7.03;;;4.32;;
66175;SDS011;52977;44.816;20.538;2023-07-31T06:23:03;8.10;;;4.65;;
66175;SDS011;52977;44.816;20.538;2023-07-31T06:25:29;8.10;;;4.45;;
66175;SDS011;52977;44.816;20.538;2023-07-31T06:27:56;7.60;;;4.22;;
66175;SDS011;52977;44.816;20.538;2023-07-31T06:30:22;8.30;;;4.75;;
66175;SDS011;52977;44.816;20.538;2023-07-31T06:32:48;9.85;;;5.07;;
66175;SDS011;52977;44.816;20.538;2023-07-31T06:35:14;6.85;;;4.32;;
66175;SDS011;52977;44.816;20.538;2023-07-31T06:37:41;8.27;;;4.82;;
66175;SDS011;52977;44.816;20.538;2023-07-31T06:40:09;9.60;;;4.93;;
66175;SDS011;52977;44.816;20.538;2023-07-31T06:42:36;8.35;;;4.50;;
66175;SDS011;52977;44.816;20.538;2023-07-31T06:45:02;7.63;;;4.30;;
66175;SDS011;52977;44.816;20.538;2023-07-31T06:47:28;8.48;;;4.72;;
66175;SDS011;52977;44.816;20.538;2023-07-31T06:49:55;6.18;;;3.90;;
66175;SDS011;52977;44.816;20.538;2023-07-31T06:52:21;7.60;;;4.43;;
66175;SDS011;52977;44.816;20.538;2023-07-31T06:55:00;6.95;;;4.15;;
66175;SDS011;52977;44.816;20.538;2023-07-31T06:57:44;8.57;;;4.15;;
66175;SDS011;52977;44.816;20.538;2023-07-31T07:00:11;8.18;;;4.03;;
66175;SDS011;52977;44.816;20.538;2023-07-31T07:02:37;8.27;;;3.78;;
66175;SDS011;52977;44.816;20.538;2023-07-31T07:05:03;7.15;;;3.75;;
66175;SDS011;52977;44.816;20.538;2023-07-31T07:07:29;7.32;;;4.20;;
66175;SDS011;52977;44.816;20.538;2023-07-31T07:09:55;7.78;;;4.20;;
66175;SDS011;52977;44.816;20.538;2023-07-31T07:12:21;6.25;;;4.00;;
66175;SDS011;52977;44.816;20.538;2023-07-31T07:14:47;8.38;;;4.22;;
66175;SDS011;52977;44.816;20.538;2023-07-31T07:17:13;5.65;;;3.78;;
66175;SDS011;52977;44.816;20.538;2023-07-31T07:19:42;7.10;;;4.15;;
66175;SDS011;52977;44.816;20.538;2023-07-31T07:22:08;8.32;;;4.13;;
66175;SDS011;52977;44.816;20.538;2023-07-31T07:24:35;7.72;;;4.00;;
66175;SDS011;52977;44.816;20.538;2023-07-31T07:27:01;8.95;;;4.00;;
66175;SDS011;52977;44.816;20.538;2023-07-31T07:29:27;8.20;;;4.50;;
66175;SDS011;52977;44.816;20.538;2023-07-31T07:31:53;5.97;;;3.42;;
66175;SDS011;52977;44.816;20.538;2023-07-31T07:34:22;6.10;;;3.63;;
66175;SDS011;52977;44.816;20.538;2023-07-31T07:36:48;11.85;;;4.03;;
66175;SDS011;52977;44.816;20.538;2023-07-31T07:39:14;7.22;;;3.80;;
66175;SDS011;52977;44.816;20.538;2023-07-31T07:41:41;8.13;;;3.63;;
66175;SDS011;52977;44.816;20.538;2023-07-31T07:44:07;7.40;;;3.10;;
66175;SDS011;52977;44.816;20.538;2023-07-31T07:46:33;5.10;;;3.13;;
66175;SDS011;52977;44.816;20.538;2023-07-31T07:48:59;9.38;;;3.78;;
66175;SDS011;52977;44.816;20.538;2023-07-31T07:51:25;5.78;;;3.58;;
66175;SDS011;52977;44.816;20.538;2023-07-31T07:53:51;6.28;;;3.08;;
66175;SDS011;52977;44.816;20.538;2023-07-31T07:56:17;5.97;;;3.40;;
66175;SDS011;52977;44.816;20.538;2023-07-31T07:58:43;5.75;;;3.30;;
66175;SDS011;52977;44.816;20.538;2023-07-31T08:01:09;7.05;;;3.13;;
66175;SDS011;52977;44.816;20.538;2023-07-31T08:03:35;5.30;;;2.87;;
66175;SDS011;52977;44.816;20.538;2023-07-31T08:06:01;6.82;;;2.90;;
66175;SDS011;52977;44.816;20.538;2023-07-31T08:08:27;7.60;;;3.03;;
66175;SDS011;52977;44.816;20.538;2023-07-31T08:10:54;5.78;;;2.67;;
66175;SDS011;52977;44.816;20.538;2023-07-31T08:13:20;5.07;;;2.92;;
66175;SDS011;52977;44.816;20.538;2023-07-31T08:15:46;6.28;;;3.03;;
66175;SDS011;52977;44.816;20.538;2023-07-31T08:18:12;8.07;;;3.35;;
66175;SDS011;52977;44.816;20.538;2023-07-31T08:20:39;6.40;;;3.15;;
66175;SDS011;52977;44.816;20.538;2023-07-31T08:23:05;6.70;;;3.50;;
66175;SDS011;52977;44.816;20.538;2023-07-31T08:25:33;7.13;;;3.30;;
66175;SDS011;52977;44.816;20.538;2023-07-31T08:28:00;5.35;;;2.63;;
66175;SDS011;52977;44.816;20.538;2023-07-31T08:30:27;7.22;;;3.67;;
66175;SDS011;52977;44.816;20.538;2023-07-31T08:32:53;7.28;;;3.30;;
66175;SDS011;52977;44.816;20.538;2023-07-31T08:35:19;9.10;;;4.38;;
66175;SDS011;52977;44.816;20.538;2023-07-31T08:37:45;6.63;;;3.47;;
66175;SDS011;52977;44.816;20.538;2023-07-31T08:40:11;4.85;;;2.83;;
66175;SDS011;52977;44.816;20.538;2023-07-31T08:42:46;6.65;;;3.25;;
66175;SDS011;52977;44.816;20.538;2023-07-31T08:45:16;6.90;;;3.53;;
66175;SDS011;52977;44.816;20.538;2023-07-31T08:47:47;7.25;;;3.72;;
66175;SDS011;52977;44.816;20.538;2023-07-31T08:50:16;6.18;;;3.60;;
66175;SDS011;52977;44.816;20.538;2023-07-31T08:52:45;5.68;;;3.30;;
66175;SDS011;52977;44.816;20.538;2023-07-31T08:55:12;5.97;;;2.85;;
66175;SDS011;52977;44.816;20.538;2023-07-31T08:57:39;5.20;;;3.17;;
66175;SDS011;52977;44.816;20.538;2023-07-31T09:00:06;7.45;;;4.05;;
66175;SDS011;52977;44.816;20.538;2023-07-31T09:05:07;6.50;;;3.40;;
66175;SDS011;52977;44.816;20.538;2023-07-31T09:07:36;9.10;;;3.50;;
66175;SDS011;52977;44.816;20.538;2023-07-31T09:10:03;5.70;;;2.92;;
66175;SDS011;52977;44.816;20.538;2023-07-31T09:12:30;6.70;;;3.55;;
66175;SDS011;52977;44.816;20.538;2023-07-31T09:14:59;6.82;;;3.30;;
66175;SDS011;52977;44.816;20.538;2023-07-31T09:17:30;5.00;;;2.90;;
66175;SDS011;52977;44.816;20.538;2023-07-31T09:20:13;7.85;;;3.10;;
66175;SDS011;52977;44.816;20.538;2023-07-31T09:22:44;6.15;;;2.97;;
66175;SDS011;52977;44.816;20.538;2023-07-31T09:25:21;5.32;;;2.80;;
66175;SDS011;52977;44.816;20.538;2023-07-31T09:27:53;5.00;;;2.60;;
66175;SDS011;52977;44.816;20.538;2023-07-31T09:30:21;5.15;;;2.30;;
66175;SDS011;52977;44.816;20.538;2023-07-31T09:32:48;4.60;;;2.58;;
66175;SDS011;52977;44.816;20.538;2023-07-31T09:37:41;5.35;;;2.60;;
66175;SDS011;52977;44.816;20.538;2023-07-31T09:40:07;7.78;;;2.83;;
66175;SDS011;52977;44.816;20.538;2023-07-31T09:42:34;5.55;;;2.25;;
66175;SDS011;52977;44.816;20.538;2023-07-31T09:45:07;3.63;;;2.25;;
66175;SDS011;52977;44.816;20.538;2023-07-31T09:47:35;4.00;;;2.28;;
66175;SDS011;52977;44.816;20.538;2023-07-31T09:50:01;4.90;;;2.28;;
66175;SDS011;52977;44.816;20.538;2023-07-31T09:52:26;6.35;;;2.63;;
66175;SDS011;52977;44.816;20.538;2023-07-31T09:54:53;6.65;;;2.50;;
66175;SDS011;52977;44.816;20.538;2023-07-31T09:57:20;4.22;;;2.20;;
66175;SDS011;52977;44.816;20.538;2023-07-31T09:59:48;4.32;;;2.13;;
66175;SDS011;52977;44.816;20.538;2023-07-31T10:02:37;4.50;;;2.22;;
66175;SDS011;52977;44.816;20.538;2023-07-31T10:05:04;4.03;;;2.13;;
66175;SDS011;52977;44.816;20.538;2023-07-31T10:07:30;6.97;;;2.15;;
66175;SDS011;52977;44.816;20.538;2023-07-31T10:09:59;5.85;;;2.20;;
66175;SDS011;52977;44.816;20.538;2023-07-31T10:12:26;4.07;;;2.22;;
66175;SDS011;52977;44.816;20.538;2023-07-31T10:14:56;3.30;;;2.00;;
66175;SDS011;52977;44.816;20.538;2023-07-31T10:17:23;5.03;;;2.10;;
66175;SDS011;52977;44.816;20.538;2023-07-31T10:19:50;3.67;;;2.50;;
66175;SDS011;52977;44.816;20.538;2023-07-31T10:22:16;5.07;;;2.22;;
66175;SDS011;52977;44.816;20.538;2023-07-31T10:24:47;4.65;;;1.90;;
66175;SDS011;52977;44.816;20.538;2023-07-31T10:27:14;4.95;;;1.67;;
66175;SDS011;52977;44.816;20.538;2023-07-31T10:29:41;4.10;;;1.90;;
66175;SDS011;52977;44.816;20.538;2023-07-31T10:32:09;3.65;;;2.00;;
66175;SDS011;52977;44.816;20.538;2023-07-31T10:34:38;3.47;;;1.80;;
66175;SDS011;52977;44.816;20.538;2023-07-31T10:40:03;3.85;;;1.80;;
66175;SDS011;52977;44.816;20.538;2023-07-31T10:42:32;5.82;;;2.00;;
66175;SDS011;52977;44.816;20.538;2023-07-31T10:45:04;5.18;;;2.10;;
66175;SDS011;52977;44.816;20.538;2023-07-31T10:47:36;4.63;;;1.67;;
66175;SDS011;52977;44.816;20.538;2023-07-31T10:50:10;7.05;;;2.30;;
66175;SDS011;52977;44.816;20.538;2023-07-31T10:52:47;23.77;;;4.15;;
66175;SDS011;52977;44.816;20.538;2023-07-31T10:55:16;3.53;;;1.70;;
66175;SDS011;52977;44.816;20.538;2023-07-31T10:57:50;3.38;;;1.52;;
66175;SDS011;52977;44.816;20.538;2023-07-31T11:02:56;3.25;;;1.70;;
66175;SDS011;52977;44.816;20.538;2023-07-31T11:08:24;4.03;;;1.45;;
66175;SDS011;52977;44.816;20.538;2023-07-31T11:13:30;3.58;;;1.73;;
66175;SDS011;52977;44.816;20.538;2023-07-31T11:15:57;3.05;;;1.50;;
66175;SDS011;52977;44.816;20.538;2023-07-31T11:18:23;3.30;;;1.50;;
66175;SDS011;52977;44.816;20.538;2023-07-31T11:20:51;3.95;;;1.63;;
66175;SDS011;52977;44.816;20.538;2023-07-31T11:23:16;4.03;;;1.40;;
66175;SDS011;52977;44.816;20.538;2023-07-31T11:25:42;2.90;;;1.35;;
66175;SDS011;52977;44.816;20.538;2023-07-31T11:28:10;5.28;;;1.67;;
66175;SDS011;52977;44.816;20.538;2023-07-31T11:30:40;3.63;;;1.58;;
66175;SDS011;52977;44.816;20.538;2023-07-31T11:33:08;3.70;;;1.55;;
66175;SDS011;52977;44.816;20.538;2023-07-31T11:35:48;3.97;;;1.42;;
66175;SDS011;52977;44.816;20.538;2023-07-31T11:38:21;4.20;;;1.40;;
66175;SDS011;52977;44.816;20.538;2023-07-31T11:40:56;3.05;;;1.38;;
66175;SDS011;52977;44.816;20.538;2023-07-31T11:43:28;6.03;;;1.60;;
66175;SDS011;52977;44.816;20.538;2023-07-31T11:45:55;4.13;;;1.52;;
66175;SDS011;52977;44.816;20.538;2023-07-31T11:48:26;6.72;;;1.52;;
66175;SDS011;52977;44.816;20.538;2023-07-31T11:50:54;3.45;;;1.70;;
66175;SDS011;52977;44.816;20.538;2023-07-31T11:53:26;4.93;;;1.55;;
66175;SDS011;52977;44.816;20.538;2023-07-31T11:56:16;3.67;;;1.77;;
66175;SDS011;52977;44.816;20.538;2023-07-31T11:58:44;4.82;;;1.40;;
66175;SDS011;52977;44.816;20.538;2023-07-31T12:01:13;5.72;;;1.38;;
66175;SDS011;52977;44.816;20.538;2023-07-31T12:03:41;3.33;;;1.40;;
66175;SDS011;52977;44.816;20.538;2023-07-31T12:06:08;4.03;;;1.40;;
66175;SDS011;52977;44.816;20.538;2023-07-31T12:08:33;3.83;;;1.30;;
66175;SDS011;52977;44.816;20.538;2023-07-31T12:11:02;3.13;;;1.45;;
66175;SDS011;52977;44.816;20.538;2023-07-31T12:13:30;3.03;;;1.40;;
66175;SDS011;52977;44.816;20.538;2023-07-31T12:15:57;4.47;;;1.73;;
66175;SDS011;52977;44.816;20.538;2023-07-31T12:18:29;3.60;;;1.58;;
66175;SDS011;52977;44.816;20.538;2023-07-31T12:20:59;5.45;;;1.50;;
66175;SDS011;52977;44.816;20.538;2023-07-31T12:23:32;2.72;;;1.27;;
66175;SDS011;52977;44.816;20.538;2023-07-31T12:28:40;4.85;;;1.50;;
66175;SDS011;52977;44.816;20.538;2023-07-31T12:31:08;4.40;;;1.42;;
66175;SDS011;52977;44.816;20.538;2023-07-31T12:33:37;6.78;;;1.58;;
66175;SDS011;52977;44.816;20.538;2023-07-31T12:36:07;6.53;;;1.55;;
66175;SDS011;52977;44.816;20.538;2023-07-31T12:41:00;3.47;;;1.42;;
66175;SDS011;52977;44.816;20.538;2023-07-31T12:43:27;2.90;;;1.52;;
66175;SDS011;52977;44.816;20.538;2023-07-31T12:45:56;3.97;;;1.60;;
66175;SDS011;52977;44.816;20.538;2023-07-31T12:48:22;5.93;;;1.67;;
66175;SDS011;52977;44.816;20.538;2023-07-31T12:50:48;3.90;;;1.65;;
66175;SDS011;52977;44.816;20.538;2023-07-31T12:53:15;4.05;;;1.70;;
66175;SDS011;52977;44.816;20.538;2023-07-31T12:55:42;8.02;;;1.80;;
66175;SDS011;52977;44.816;20.538;2023-07-31T12:58:08;5.35;;;1.60;;
66175;SDS011;52977;44.816;20.538;2023-07-31T13:00:34;3.22;;;1.60;;
66175;SDS011;52977;44.816;20.538;2023-07-31T13:03:00;4.32;;;1.60;;
66175;SDS011;52977;44.816;20.538;2023-07-31T13:05:27;4.00;;;1.63;;
66175;SDS011;52977;44.816;20.538;2023-07-31T13:07:54;4.85;;;1.70;;
66175;SDS011;52977;44.816;20.538;2023-07-31T13:10:20;4.25;;;1.33;;
66175;SDS011;52977;44.816;20.538;2023-07-31T13:12:47;3.72;;;1.30;;
66175;SDS011;52977;44.816;20.538;2023-07-31T13:15:13;6.45;;;1.73;;
66175;SDS011;52977;44.816;20.538;2023-07-31T13:17:40;3.65;;;1.50;;
66175;SDS011;52977;44.816;20.538;2023-07-31T13:20:07;4.63;;;1.63;;
66175;SDS011;52977;44.816;20.538;2023-07-31T13:22:33;2.95;;;1.33;;
66175;SDS011;52977;44.816;20.538;2023-07-31T13:25:00;8.05;;;1.60;;
66175;SDS011;52977;44.816;20.538;2023-07-31T13:27:25;7.97;;;1.73;;
66175;SDS011;52977;44.816;20.538;2023-07-31T13:29:52;2.70;;;1.63;;
66175;SDS011;52977;44.816;20.538;2023-07-31T13:32:18;3.50;;;1.50;;
66175;SDS011;52977;44.816;20.538;2023-07-31T13:34:46;3.17;;;1.88;;
66175;SDS011;52977;44.816;20.538;2023-07-31T13:37:13;5.53;;;1.20;;
66175;SDS011;52977;44.816;20.538;2023-07-31T13:39:39;3.83;;;1.65;;
66175;SDS011;52977;44.816;20.538;2023-07-31T13:42:06;3.47;;;1.48;;
66175;SDS011;52977;44.816;20.538;2023-07-31T13:44:34;3.67;;;1.65;;
66175;SDS011;52977;44.816;20.538;2023-07-31T13:47:01;2.90;;;1.30;;
66175;SDS011;52977;44.816;20.538;2023-07-31T13:49:27;2.85;;;1.30;;
66175;SDS011;52977;44.816;20.538;2023-07-31T13:51:53;4.20;;;1.50;;
66175;SDS011;52977;44.816;20.538;2023-07-31T13:54:19;5.47;;;2.15;;
66175;SDS011;52977;44.816;20.538;2023-07-31T13:56:46;5.78;;;1.50;;
66175;SDS011;52977;44.816;20.538;2023-07-31T13:59:12;3.38;;;1.30;;
66175;SDS011;52977;44.816;20.538;2023-07-31T14:01:39;5.32;;;1.63;;
66175;SDS011;52977;44.816;20.538;2023-07-31T14:04:05;3.03;;;1.40;;
66175;SDS011;52977;44.816;20.538;2023-07-31T14:06:31;3.97;;;1.48;;
66175;SDS011;52977;44.816;20.538;2023-07-31T14:08:57;2.63;;;1.38;;
66175;SDS011;52977;44.816;20.538;2023-07-31T14:11:23;2.45;;;1.20;;
66175;SDS011;52977;44.816;20.538;2023-07-31T14:13:50;4.40;;;1.92;;
66175;SDS011;52977;44.816;20.538;2023-07-31T14:16:16;3.95;;;1.23;;
66175;SDS011;52977;44.816;20.538;2023-07-31T14:18:43;4.28;;;1.65;;
66175;SDS011;52977;44.816;20.538;2023-07-31T14:21:11;4.85;;;1.50;;
66175;SDS011;52977;44.816;20.538;2023-07-31T14:23:38;4.43;;;1.52;;
66175;SDS011;52977;44.816;20.538;2023-07-31T14:26:04;3.47;;;1.42;;
66175;SDS011;52977;44.816;20.538;2023-07-31T14:28:30;5.68;;;1.40;;
66175;SDS011;52977;44.816;20.538;2023-07-31T14:30:56;8.02;;;1.60;;
66175;SDS011;52977;44.816;20.538;2023-07-31T14:33:22;3.45;;;1.50;;
66175;SDS011;52977;44.816;20.538;2023-07-31T14:35:49;2.97;;;1.33;;
66175;SDS011;52977;44.816;20.538;2023-07-31T14:38:15;3.92;;;1.80;;
66175;SDS011;52977;44.816;20.538;2023-07-31T14:40:41;5.60;;;1.42;;
66175;SDS011;52977;44.816;20.538;2023-07-31T14:43:07;3.28;;;1.40;;
66175;SDS011;52977;44.816;20.538;2023-07-31T14:45:33;4.55;;;1.70;;
66175;SDS011;52977;44.816;20.538;2023-07-31T14:47:59;3.03;;;1.40;;
66175;SDS011;52977;44.816;20.538;2023-07-31T14:50:26;3.97;;;1.58;;
66175;SDS011;52977;44.816;20.538;2023-07-31T14:52:52;3.97;;;1.25;;
66175;SDS011;52977;44.816;20.538;2023-07-31T14:55:18;5.78;;;1.50;;
66175;SDS011;52977;44.816;20.538;2023-07-31T14:57:45;3.83;;;1.30;;
66175;SDS011;52977;44.816;20.538;2023-07-31T15:00:11;3.50;;;1.25;;